Terminal Aerodrome Forecast
Issued by NWS

Home | Current Version | Previous Version | Text Only | Print | Product List | Glossary On
Versions: 1 2 3 4 5 6 7 8 9 10 11 12 13 14 15
000
FTUS44 KJAN 291126
TAFGTR
TAF
KGTR 291126Z 2912/3012 35006KT P6SM SCT100
     FM291700 36007KT P6SM VCTS BKN050CB
     FM300000 34003KT P6SM SCT150=

USA.gov is the U.S. government's official web portal to all federal, state and local government web resources and services.